createdAt,value
2018-12-20T00:00:20.170Z,7.45
2018-12-20T00:01:20.239Z,7.39
2018-12-20T00:02:20.311Z,7.40
2018-12-20T00:03:20.251Z,7.36
2018-12-20T00:04:20.214Z,7.38
2018-12-20T00:05:20.303Z,7.47
2018-12-20T00:06:20.265Z,7.36
2018-12-20T00:07:20.673Z,7.39
2018-12-20T00:08:20.459Z,7.33
2018-12-20T00:09:20.416Z,7.45
2018-12-20T00:10:20.313Z,7.48
2018-12-20T00:11:20.328Z,7.39
2018-12-20T00:12:20.428Z,7.36
2018-12-20T00:13:20.386Z,7.40
2018-12-20T00:14:20.377Z,7.50
2018-12-20T00:15:20.542Z,7.39
2018-12-20T00:16:20.408Z,7.38
2018-12-20T00:17:20.424Z,7.38
2018-12-20T00:18:20.604Z,7.39
2018-12-20T00:19:20.457Z,7.36
2018-12-20T00:20:20.558Z,7.45
2018-12-20T00:21:20.597Z,7.48
2018-12-20T00:22:20.590Z,7.47
2018-12-20T00:23:20.545Z,7.50
2018-12-20T00:24:20.560Z,7.54
2018-12-20T00:25:20.552Z,7.48
2018-12-20T00:26:20.590Z,7.60
2018-12-20T00:27:20.587Z,7.60
2018-12-20T00:28:20.599Z,7.63
2018-12-20T00:29:20.615Z,7.58
2018-12-20T00:30:20.695Z,7.61
2018-12-20T00:31:20.650Z,7.63
2018-12-20T00:32:20.694Z,7.61
2018-12-20T00:33:20.814Z,7.57
2018-12-20T00:34:20.697Z,7.53
2018-12-20T00:35:20.850Z,7.48
2018-12-20T00:36:20.805Z,7.53
2018-12-20T00:37:20.748Z,7.45
2018-12-20T00:38:20.941Z,7.39
2018-12-20T00:39:20.911Z,7.50
2018-12-20T00:40:20.874Z,7.38
2018-12-20T00:41:20.810Z,7.33
2018-12-20T00:42:20.898Z,7.47
2018-12-20T00:43:20.842Z,7.40
2018-12-20T00:44:20.957Z,7.36
2018-12-20T00:45:20.975Z,7.38
2018-12-20T00:46:20.915Z,7.33
2018-12-20T00:47:20.907Z,7.21
2018-12-20T00:48:20.993Z,7.23
2018-12-20T00:49:20.941Z,7.20
2018-12-20T00:50:20.983Z,7.29
2018-12-20T00:51:20.976Z,7.25
2018-12-20T00:52:20.989Z,7.31
2018-12-20T00:53:21.006Z,7.32
2018-12-20T00:54:21.020Z,7.20
2018-12-20T00:55:21.037Z,7.23
2018-12-20T00:56:21.250Z,7.20
2018-12-20T00:57:21.068Z,7.28
2018-12-20T00:58:21.087Z,7.20
2018-12-20T00:59:21.244Z,7.28
2018-12-20T01:00:21.116Z,7.17
2018-12-20T01:01:21.216Z,7.21
2018-12-20T01:02:21.150Z,7.14
2018-12-20T01:03:21.174Z,7.03
2018-12-20T01:04:21.180Z,6.93
2018-12-20T01:05:21.320Z,7.05
2018-12-20T01:06:21.214Z,6.96
2018-12-20T01:07:21.233Z,7.03
2018-12-20T01:08:21.250Z,7.02
2018-12-20T01:09:21.283Z,6.96
2018-12-20T01:10:21.320Z,6.93
2018-12-20T01:11:21.291Z,6.96
2018-12-20T01:12:21.307Z,6.93
2018-12-20T01:13:21.323Z,6.93
2018-12-20T01:14:21.580Z,6.95
2018-12-20T01:15:21.442Z,6.89
2018-12-20T01:16:21.370Z,7.00
2018-12-20T01:17:21.467Z,6.93
2018-12-20T01:18:21.403Z,6.93
2018-12-20T01:19:21.419Z,6.97
2018-12-20T01:20:21.464Z,6.93
2018-12-20T01:21:21.580Z,6.97
2018-12-20T01:22:21.683Z,6.96
2018-12-20T01:23:21.628Z,6.87
2018-12-20T01:24:21.495Z,6.93
2018-12-20T01:25:21.521Z,6.92
2018-12-20T01:26:21.612Z,7.00
2018-12-20T01:27:21.669Z,6.92
2018-12-20T01:28:21.717Z,7.00
2018-12-20T01:29:21.587Z,6.99
2018-12-20T01:30:21.594Z,6.92
2018-12-20T01:31:21.625Z,6.84
2018-12-20T01:32:21.624Z,6.85
2018-12-20T01:33:21.649Z,6.85
2018-12-20T01:34:21.743Z,6.87
2018-12-20T01:35:21.669Z,6.92
2018-12-20T01:36:21.693Z,6.93
2018-12-20T01:37:21.708Z,6.96
2018-12-20T01:38:21.716Z,6.93
2018-12-20T01:39:21.955Z,6.92
2018-12-20T01:40:21.747Z,6.78
2018-12-20T01:41:21.764Z,6.87
2018-12-20T01:42:21.785Z,6.82
2018-12-20T01:43:21.844Z,6.84
2018-12-20T01:44:21.810Z,6.93
2018-12-20T01:45:21.838Z,6.92
2018-12-20T01:46:21.846Z,6.93
2018-12-20T01:47:21.995Z,6.97
2018-12-20T01:48:21.880Z,6.93
2018-12-20T01:49:21.928Z,6.93
2018-12-20T01:50:22.428Z,6.89
2018-12-20T01:51:21.948Z,6.93
2018-12-20T01:52:21.935Z,6.89
2018-12-20T01:53:21.952Z,6.99
2018-12-20T01:54:21.968Z,6.93
2018-12-20T01:55:22.091Z,6.96
2018-12-20T01:56:22.098Z,6.99
2018-12-20T01:57:22.015Z,6.93
2018-12-20T01:58:22.040Z,6.93
2018-12-20T01:59:22.046Z,6.95
2018-12-20T02:00:22.324Z,6.96
2018-12-20T02:01:22.201Z,6.96
2018-12-20T02:02:22.313Z,6.96
2018-12-20T02:03:22.110Z,6.93
2018-12-20T02:04:22.125Z,6.97
2018-12-20T02:05:22.162Z,6.92
2018-12-20T02:06:22.217Z,6.93
2018-12-20T02:07:22.336Z,6.88
2018-12-20T02:08:22.193Z,6.89
2018-12-20T02:09:22.212Z,6.89
2018-12-20T02:10:22.359Z,6.89
2018-12-20T02:11:22.232Z,6.88
2018-12-20T02:12:22.292Z,6.89
2018-12-20T02:13:22.265Z,6.92
2018-12-20T02:14:22.280Z,6.99
2018-12-20T02:15:22.315Z,6.95
2018-12-20T02:16:22.515Z,7.02
2018-12-20T02:17:22.449Z,7.05
2018-12-20T02:18:22.406Z,6.95
2018-12-20T02:19:22.359Z,6.97
2018-12-20T02:20:22.620Z,7.02
2018-12-20T02:21:22.410Z,7.03
2018-12-20T02:22:22.453Z,6.96
2018-12-20T02:23:22.487Z,6.99
2018-12-20T02:24:22.586Z,6.99
2018-12-20T02:25:22.455Z,6.96
2018-12-20T02:26:22.539Z,6.99
2018-12-20T02:27:22.501Z,7.02
2018-12-20T02:28:22.556Z,7.03
2018-12-20T02:29:22.557Z,6.95
2018-12-20T02:30:22.696Z,6.99
2018-12-20T02:31:22.547Z,6.95
2018-12-20T02:32:22.631Z,7.03
2018-12-20T02:33:22.838Z,7.03
2018-12-20T02:34:22.614Z,7.10
2018-12-20T02:35:22.612Z,7.07
2018-12-20T02:36:22.629Z,7.13
2018-12-20T02:37:22.851Z,7.02
2018-12-20T02:38:22.898Z,7.06
2018-12-20T02:39:22.750Z,7.02
2018-12-20T02:40:22.730Z,6.99
2018-12-20T02:41:22.802Z,6.97
2018-12-20T02:42:22.726Z,6.95
2018-12-20T02:43:22.738Z,6.99
2018-12-20T02:44:22.754Z,7.02
2018-12-20T02:45:22.931Z,6.96
2018-12-20T02:46:23.097Z,6.99
2018-12-20T02:47:22.801Z,6.95
2018-12-20T02:48:22.995Z,6.99
2018-12-20T02:49:23.027Z,6.89
2018-12-20T02:50:24.154Z,7.00
2018-12-20T02:51:22.908Z,7.03
2018-12-20T02:52:22.901Z,7.03
2018-12-20T02:53:22.906Z,6.92
2018-12-20T02:54:23.136Z,6.95
2018-12-20T02:55:23.046Z,6.97
2018-12-20T02:56:23.010Z,7.02
2018-12-20T02:57:23.048Z,7.05
2018-12-20T02:58:23.020Z,6.96
2018-12-20T02:59:23.023Z,7.02
2018-12-20T03:00:23.087Z,6.97
2018-12-20T03:01:23.206Z,7.06
2018-12-20T03:02:23.182Z,6.96
2018-12-20T03:03:23.217Z,6.92
2018-12-20T03:04:23.237Z,6.96
2018-12-20T03:05:23.267Z,6.96
2018-12-20T03:06:23.272Z,6.99
2018-12-20T03:07:23.126Z,6.97
2018-12-20T03:08:23.173Z,7.00
2018-12-20T03:09:23.185Z,6.92
2018-12-20T03:10:23.333Z,6.88
2018-12-20T03:11:23.186Z,6.96
2018-12-20T03:12:23.203Z,6.96
2018-12-20T03:13:23.361Z,6.92
2018-12-20T03:14:23.262Z,6.93
2018-12-20T03:15:23.506Z,6.93
2018-12-20T03:16:23.264Z,6.97
2018-12-20T03:17:23.283Z,6.93
2018-12-20T03:18:23.337Z,6.97
2018-12-20T03:19:23.490Z,6.97
2018-12-20T03:20:23.335Z,6.99
2018-12-20T03:21:23.498Z,7.05
2018-12-20T03:22:23.507Z,7.07
2018-12-20T03:23:23.494Z,7.07
2018-12-20T03:24:23.622Z,7.05
2018-12-20T03:25:23.512Z,7.13
2018-12-20T03:26:23.454Z,7.10
2018-12-20T03:27:23.476Z,7.05
2018-12-20T03:28:23.486Z,7.15
2018-12-20T03:29:23.596Z,7.05
2018-12-20T03:30:23.971Z,7.05
2018-12-20T03:31:23.505Z,7.13
2018-12-20T03:32:23.859Z,7.11
2018-12-20T03:33:23.540Z,7.02
2018-12-20T03:34:23.550Z,7.03
2018-12-20T03:35:23.566Z,7.02
2018-12-20T03:36:23.624Z,7.03
2018-12-20T03:37:23.599Z,7.05
2018-12-20T03:38:23.658Z,7.06
2018-12-20T03:39:23.636Z,7.02
2018-12-20T03:40:23.648Z,7.06
2018-12-20T03:41:23.668Z,7.14
2018-12-20T03:42:23.840Z,7.07
2018-12-20T03:43:23.919Z,7.13
2018-12-20T03:44:23.761Z,7.10
2018-12-20T03:45:28.613Z,7.06
2018-12-20T03:46:23.972Z,7.02
2018-12-20T03:47:23.816Z,7.07
2018-12-20T03:48:23.935Z,7.10
2018-12-20T03:49:23.965Z,7.06
2018-12-20T03:50:23.913Z,7.11
2018-12-20T03:51:23.985Z,7.10
2018-12-20T03:52:24.122Z,7.10
2018-12-20T03:53:24.099Z,7.11
2018-12-20T03:54:23.869Z,7.17
2018-12-20T03:55:24.090Z,7.03
2018-12-20T03:56:23.899Z,7.20
2018-12-20T03:57:24.086Z,7.17
2018-12-20T03:58:23.955Z,7.18
2018-12-20T03:59:23.948Z,7.23
2018-12-20T04:00:24.136Z,7.15
2018-12-20T04:01:24.180Z,7.20
2018-12-20T04:02:24.150Z,7.29
2018-12-20T04:03:24.064Z,7.31
2018-12-20T04:04:24.163Z,7.29
2018-12-20T04:05:24.079Z,7.38
2018-12-20T04:06:24.263Z,7.35
2018-12-20T04:07:24.125Z,7.33
2018-12-20T04:08:24.155Z,7.38
2018-12-20T04:09:24.276Z,7.33
2018-12-20T04:10:24.309Z,7.36
2018-12-20T04:11:24.138Z,7.47
2018-12-20T04:12:24.154Z,7.40
2018-12-20T04:13:24.167Z,7.40
2018-12-20T04:14:24.187Z,7.40
2018-12-20T04:15:24.260Z,7.38
2018-12-20T04:16:24.283Z,7.48
2018-12-20T04:17:24.243Z,7.39
2018-12-20T04:18:24.395Z,7.42
2018-12-20T04:19:24.277Z,7.50
2018-12-20T04:20:24.357Z,7.45
2018-12-20T04:21:24.294Z,7.39
2018-12-20T04:22:24.312Z,7.40
2018-12-20T04:23:24.329Z,7.50
2018-12-20T04:24:24.425Z,7.53
2018-12-20T04:25:24.365Z,7.48
2018-12-20T04:26:24.609Z,7.39
2018-12-20T04:27:24.389Z,7.47
2018-12-20T04:28:24.621Z,7.51
2018-12-20T04:29:24.611Z,7.48
2018-12-20T04:30:24.444Z,7.53
2018-12-20T04:31:24.563Z,7.50
2018-12-20T04:32:24.471Z,7.43
2018-12-20T04:33:24.524Z,7.54
2018-12-20T04:34:24.545Z,7.47
2018-12-20T04:35:24.516Z,7.54
2018-12-20T04:36:24.610Z,7.47
2018-12-20T04:37:24.549Z,7.53
2018-12-20T04:38:24.569Z,7.43
2018-12-20T04:39:24.841Z,7.48
2018-12-20T04:40:24.672Z,7.45
2018-12-20T04:41:24.826Z,7.54
2018-12-20T04:42:24.629Z,7.51
2018-12-20T04:43:24.647Z,7.43
2018-12-20T04:44:24.849Z,7.54
2018-12-20T04:45:24.706Z,7.47
2018-12-20T04:46:24.730Z,7.48
2018-12-20T04:47:24.722Z,7.50
2018-12-20T04:48:24.816Z,7.50
2018-12-20T04:49:24.924Z,7.51
2018-12-20T04:50:24.887Z,7.53
2018-12-20T04:51:24.771Z,7.58
2018-12-20T04:52:25.152Z,7.54
2018-12-20T04:53:24.822Z,7.53
2018-12-20T04:54:24.862Z,7.58
2018-12-20T04:55:24.834Z,7.54
2018-12-20T04:56:25.125Z,7.47
2018-12-20T04:57:25.065Z,7.48
2018-12-20T04:58:24.919Z,7.50
2018-12-20T04:59:24.944Z,7.53
2018-12-20T05:00:24.917Z,7.54
2018-12-20T05:01:25.028Z,7.51
2018-12-20T05:02:24.945Z,7.61
2018-12-20T05:03:24.967Z,7.60
2018-12-20T05:04:24.981Z,7.57
2018-12-20T05:05:24.998Z,7.63
2018-12-20T05:06:25.012Z,7.66
2018-12-20T05:07:25.031Z,7.61
2018-12-20T05:08:25.243Z,7.66
2018-12-20T05:09:25.059Z,7.57
2018-12-20T05:10:25.078Z,7.61
2018-12-20T05:11:25.440Z,7.63
2018-12-20T05:12:25.108Z,7.69
2018-12-20T05:13:25.121Z,7.70
2018-12-20T05:14:26.420Z,7.67
2018-12-20T05:15:25.196Z,7.66
2018-12-20T05:16:25.393Z,7.72
2018-12-20T05:17:25.186Z,7.67
2018-12-20T05:18:25.204Z,7.66
2018-12-20T05:19:25.229Z,7.75
2018-12-20T05:20:25.263Z,7.63
2018-12-20T05:21:25.280Z,7.80
2018-12-20T05:22:25.704Z,7.76
2018-12-20T05:23:25.368Z,7.83
2018-12-20T05:24:25.301Z,7.77
2018-12-20T05:25:25.568Z,7.70
2018-12-20T05:26:25.339Z,7.82
2018-12-20T05:27:25.419Z,7.85
2018-12-20T05:28:25.378Z,7.85
2018-12-20T05:29:25.426Z,7.82
2018-12-20T05:30:25.398Z,7.80
2018-12-20T05:31:25.415Z,7.85
2018-12-20T05:32:25.428Z,7.85
2018-12-20T05:33:25.450Z,7.87
2018-12-20T05:34:25.461Z,7.97
2018-12-20T05:35:25.571Z,7.91
2018-12-20T05:36:25.503Z,7.91
2018-12-20T05:37:25.614Z,7.97
2018-12-20T05:38:25.529Z,7.95
2018-12-20T05:39:25.579Z,7.94
2018-12-20T05:40:25.558Z,7.97
2018-12-20T05:41:25.701Z,7.98
2018-12-20T05:42:25.637Z,7.97
2018-12-20T05:43:25.816Z,7.95
2018-12-20T05:44:25.808Z,8.00
2018-12-20T05:45:25.637Z,8.03
2018-12-20T05:46:25.884Z,8.05
2018-12-20T05:47:25.669Z,8.05
2018-12-20T05:48:25.778Z,8.01
2018-12-20T05:49:25.772Z,8.05
2018-12-20T05:50:25.720Z,8.05
2018-12-20T05:51:25.844Z,8.05
2018-12-20T05:52:25.933Z,8.05
2018-12-20T05:53:25.855Z,8.15
2018-12-20T05:54:25.791Z,8.08
2018-12-20T05:55:25.991Z,8.12
2018-12-20T05:56:25.817Z,8.13
2018-12-20T05:57:25.830Z,8.20
2018-12-20T05:58:25.900Z,8.23
2018-12-20T05:59:25.911Z,8.20
2018-12-20T06:00:26.073Z,8.16
2018-12-20T06:01:25.913Z,8.18
2018-12-20T06:02:25.950Z,8.15
2018-12-20T06:03:26.043Z,8.24
2018-12-20T06:04:26.214Z,8.15
2018-12-20T06:05:26.018Z,8.28
2018-12-20T06:06:25.978Z,8.23
2018-12-20T06:07:25.992Z,8.23
2018-12-20T06:08:26.010Z,8.34
2018-12-20T06:09:26.094Z,8.37
2018-12-20T06:10:26.040Z,8.24
2018-12-20T06:11:26.058Z,8.23
2018-12-20T06:12:26.337Z,8.23
2018-12-20T06:13:26.131Z,8.31
2018-12-20T06:14:26.104Z,8.42
2018-12-20T06:15:26.154Z,8.23
2018-12-20T06:16:26.140Z,8.24
2018-12-20T06:17:26.185Z,8.33
2018-12-20T06:18:26.173Z,8.31
2018-12-20T06:19:26.375Z,8.18
2018-12-20T06:20:26.248Z,8.28
2018-12-20T06:21:26.221Z,8.31
2018-12-20T06:22:26.411Z,8.30
2018-12-20T06:23:26.305Z,8.19
2018-12-20T06:24:26.270Z,8.26
2018-12-20T06:25:26.290Z,8.24
2018-12-20T06:26:26.302Z,8.24
2018-12-20T06:27:26.319Z,8.23
2018-12-20T06:28:26.335Z,8.33
2018-12-20T06:29:26.349Z,8.36
2018-12-20T06:30:26.368Z,8.42
2018-12-20T06:31:26.383Z,8.36
2018-12-20T06:32:26.400Z,8.33
2018-12-20T06:33:26.414Z,8.24
2018-12-20T06:34:26.433Z,8.34
2018-12-20T06:35:26.447Z,8.31
2018-12-20T06:36:26.466Z,8.37
2018-12-20T06:37:26.482Z,8.42
2018-12-20T06:38:26.496Z,8.36
2018-12-20T06:39:26.516Z,8.31
2018-12-20T06:40:26.533Z,8.34
2018-12-20T06:41:26.547Z,8.36
2018-12-20T06:42:26.600Z,8.38
2018-12-20T06:43:26.578Z,8.31
2018-12-20T06:44:26.595Z,8.36
2018-12-20T06:45:26.610Z,8.31
2018-12-20T06:46:26.628Z,8.36
2018-12-20T06:47:26.643Z,8.30
2018-12-20T06:48:26.661Z,8.36
2018-12-20T06:49:26.681Z,8.34
2018-12-20T06:50:26.692Z,8.38
2018-12-20T06:51:26.708Z,8.33
2018-12-20T06:52:26.727Z,8.30
2018-12-20T06:53:26.742Z,8.30
2018-12-20T06:54:26.877Z,8.34
2018-12-20T06:55:26.774Z,8.37
2018-12-20T06:56:26.793Z,8.36
2018-12-20T06:57:26.806Z,8.37
2018-12-20T06:58:26.825Z,8.36
2018-12-20T06:59:26.841Z,8.41
2018-12-20T07:00:26.859Z,8.38
2018-12-20T07:01:26.875Z,8.44
2018-12-20T07:02:26.893Z,8.36
2018-12-20T07:03:26.905Z,8.38
2018-12-20T07:04:26.924Z,8.44
2018-12-20T07:05:26.937Z,8.42
2018-12-20T07:06:26.954Z,8.49
2018-12-20T07:07:26.972Z,8.45
2018-12-20T07:08:26.990Z,8.37
2018-12-20T07:09:27.004Z,8.36
2018-12-20T07:10:27.020Z,8.34
2018-12-20T07:11:27.039Z,8.48
2018-12-20T07:12:27.054Z,8.38
2018-12-20T07:13:27.069Z,8.34
2018-12-20T07:14:27.090Z,8.42
2018-12-20T07:15:27.103Z,8.44
2018-12-20T07:16:29.413Z,8.49
2018-12-20T07:17:27.139Z,8.45
2018-12-20T07:18:27.154Z,8.45
2018-12-20T07:19:27.171Z,8.51
2018-12-20T07:20:27.186Z,8.45
2018-12-20T07:21:27.205Z,8.52
2018-12-20T07:22:27.221Z,8.51
2018-12-20T07:23:27.235Z,8.56
2018-12-20T07:24:27.252Z,8.58
2018-12-20T07:25:27.268Z,8.52
2018-12-20T07:26:27.285Z,8.55
2018-12-20T07:27:27.302Z,8.56
2018-12-20T07:28:27.321Z,8.55
2018-12-20T07:29:27.337Z,8.58
2018-12-20T07:30:27.352Z,8.55
2018-12-20T07:31:27.367Z,8.53
2018-12-20T07:32:27.386Z,8.52
2018-12-20T07:33:27.402Z,8.55
2018-12-20T07:34:27.426Z,8.52
2018-12-20T07:35:27.436Z,8.52
2018-12-20T07:36:27.451Z,8.46
2018-12-20T07:37:27.467Z,8.48
2018-12-20T07:38:27.487Z,8.52
2018-12-20T07:39:27.503Z,8.52
2018-12-20T07:40:27.519Z,8.55
2018-12-20T07:41:27.535Z,8.48
2018-12-20T07:42:27.553Z,8.58
2018-12-20T07:43:27.568Z,8.55
2018-12-20T07:44:27.584Z,8.51
2018-12-20T07:45:27.599Z,8.52
2018-12-20T07:46:27.667Z,8.52
2018-12-20T07:47:27.634Z,8.51
2018-12-20T07:48:32.106Z,8.53
2018-12-20T07:49:27.667Z,8.55
2018-12-20T07:50:27.682Z,8.58
2018-12-20T07:51:27.699Z,8.53
2018-12-20T07:52:27.719Z,8.64
2018-12-20T07:53:27.733Z,8.66
2018-12-20T07:54:27.751Z,8.66
2018-12-20T07:55:27.768Z,8.63
2018-12-20T07:56:27.782Z,8.56
2018-12-20T07:57:27.801Z,8.64
2018-12-20T07:58:27.815Z,8.58
2018-12-20T07:59:27.831Z,8.64
2018-12-20T08:00:27.850Z,8.53
2018-12-20T08:01:27.864Z,8.56
2018-12-20T08:02:27.884Z,8.55
2018-12-20T08:03:27.899Z,8.55
2018-12-20T08:04:27.915Z,8.63
2018-12-20T08:05:27.937Z,8.49
2018-12-20T08:06:27.952Z,8.53
2018-12-20T08:07:27.964Z,8.52
2018-12-20T08:08:27.981Z,8.48
2018-12-20T08:09:27.997Z,8.52
2018-12-20T08:10:28.014Z,8.52
2018-12-20T08:11:28.231Z,8.55
2018-12-20T08:12:28.048Z,8.56
2018-12-20T08:13:28.072Z,8.52
2018-12-20T08:14:28.081Z,8.55
2018-12-20T08:15:28.100Z,8.63
2018-12-20T08:16:28.120Z,8.55
2018-12-20T08:17:28.129Z,8.58
2018-12-20T08:18:28.147Z,8.69
2018-12-20T08:19:36.031Z,8.58
2018-12-20T08:20:28.183Z,8.64
2018-12-20T08:21:28.196Z,8.66
2018-12-20T08:22:28.214Z,8.58
2018-12-20T08:23:28.232Z,8.66
2018-12-20T08:24:28.250Z,8.69
2018-12-20T08:25:28.263Z,8.67
2018-12-20T08:26:28.283Z,8.73
2018-12-20T08:27:28.299Z,8.69
2018-12-20T08:28:28.315Z,8.78
2018-12-20T08:29:28.332Z,8.79
2018-12-20T08:30:28.349Z,8.70
2018-12-20T08:31:28.363Z,8.71
2018-12-20T08:32:28.381Z,8.70
2018-12-20T08:33:28.398Z,8.74
2018-12-20T08:34:28.413Z,8.76
2018-12-20T08:35:28.430Z,8.71
2018-12-20T08:36:28.447Z,8.70
2018-12-20T08:37:28.462Z,8.70
2018-12-20T08:38:28.482Z,8.82
2018-12-20T08:39:28.497Z,8.88
2018-12-20T08:40:28.517Z,8.79
2018-12-20T08:41:28.531Z,8.82
2018-12-20T08:42:28.547Z,8.79
2018-12-20T08:43:28.566Z,8.87
2018-12-20T08:44:28.584Z,8.82
2018-12-20T08:45:28.787Z,8.79
2018-12-20T08:46:28.616Z,8.87
2018-12-20T08:47:28.634Z,8.81
2018-12-20T08:48:28.647Z,8.84
2018-12-20T08:49:28.663Z,8.79
2018-12-20T08:50:28.680Z,8.79
2018-12-20T08:51:28.701Z,8.89
2018-12-20T08:52:28.716Z,8.78
2018-12-20T08:53:28.735Z,8.85
2018-12-20T08:54:28.751Z,8.84
2018-12-20T08:55:28.766Z,8.89
2018-12-20T08:56:28.784Z,8.95
2018-12-20T08:57:28.797Z,8.89
2018-12-20T08:58:28.814Z,8.89
2018-12-20T08:59:28.832Z,8.95
2018-12-20T09:00:28.851Z,8.91
2018-12-20T09:01:28.870Z,8.88
2018-12-20T09:02:28.885Z,8.79
2018-12-20T09:03:28.899Z,8.85
2018-12-20T09:04:28.916Z,8.82
2018-12-20T09:05:28.936Z,8.81
2018-12-20T09:06:28.949Z,8.79
2018-12-20T09:07:29.270Z,8.84
2018-12-20T09:08:28.983Z,8.92
2018-12-20T09:09:29.004Z,8.89
2018-12-20T09:10:29.025Z,8.81
2018-12-20T09:11:29.036Z,8.91
2018-12-20T09:12:29.053Z,8.95
2018-12-20T09:13:29.066Z,8.92
2018-12-20T09:14:29.087Z,8.87
2018-12-20T09:15:29.103Z,8.91
2018-12-20T09:16:29.123Z,8.88
2018-12-20T09:17:29.136Z,8.89
2018-12-20T09:18:29.152Z,8.79
2018-12-20T09:19:29.173Z,8.79
2018-12-20T09:20:32.910Z,8.87
2018-12-20T09:21:29.203Z,8.92
2018-12-20T09:22:29.221Z,8.92
2018-12-20T09:23:29.237Z,8.89
2018-12-20T09:24:29.254Z,8.92
2018-12-20T09:25:29.269Z,8.92
2018-12-20T09:26:29.286Z,8.97
2018-12-20T09:27:29.304Z,9.02
2018-12-20T09:28:29.319Z,9.04
2018-12-20T09:29:29.338Z,9.02
2018-12-20T09:30:30.607Z,9.08
2018-12-20T09:31:29.369Z,9.08
2018-12-20T09:32:29.394Z,9.04
2018-12-20T09:33:29.402Z,9.03
2018-12-20T09:34:29.610Z,9.13
2018-12-20T09:35:29.587Z,9.03
2018-12-20T09:36:29.454Z,9.10
2018-12-20T09:37:29.474Z,9.04
2018-12-20T09:38:29.489Z,9.14
2018-12-20T09:39:29.508Z,9.08
2018-12-20T09:40:29.522Z,9.13
2018-12-20T09:41:29.540Z,9.10
2018-12-20T09:42:29.561Z,9.14
2018-12-20T09:43:29.573Z,9.13
2018-12-20T09:44:29.593Z,9.22
2018-12-20T09:45:29.708Z,9.25
2018-12-20T09:46:29.624Z,9.28
2018-12-20T09:47:29.692Z,9.23
2018-12-20T09:48:29.710Z,9.34
2018-12-20T09:49:29.678Z,9.32
2018-12-20T09:50:29.692Z,9.36
2018-12-20T09:51:29.713Z,9.41
2018-12-20T09:52:29.728Z,9.36
2018-12-20T09:53:29.745Z,9.29
2018-12-20T09:54:29.764Z,9.34
2018-12-20T09:55:29.778Z,9.34
2018-12-20T09:56:29.797Z,9.40
2018-12-20T09:57:29.812Z,9.32
2018-12-20T09:58:29.831Z,9.31
2018-12-20T09:59:29.847Z,9.39
2018-12-20T10:00:29.865Z,9.40
2018-12-20T10:01:29.878Z,9.43
2018-12-20T10:02:29.895Z,9.46
2018-12-20T10:03:29.913Z,9.46
2018-12-20T10:04:29.930Z,9.46
2018-12-20T10:05:29.947Z,9.39
2018-12-20T10:06:29.964Z,9.46
2018-12-20T10:07:29.984Z,9.47
2018-12-20T10:08:30.005Z,9.41
2018-12-20T10:09:31.521Z,9.51
2018-12-20T10:10:30.038Z,9.59
2018-12-20T10:11:30.052Z,9.56
2018-12-20T10:12:30.070Z,9.56
2018-12-20T10:13:30.091Z,9.54
2018-12-20T10:14:30.103Z,9.55
2018-12-20T10:15:30.121Z,9.56
2018-12-20T10:16:30.136Z,9.62
2018-12-20T10:17:30.156Z,9.61
2018-12-20T10:18:30.172Z,9.56
2018-12-20T10:19:30.187Z,9.55
2018-12-20T10:20:30.205Z,9.55
2018-12-20T10:21:30.222Z,9.55
2018-12-20T10:22:30.241Z,9.59
2018-12-20T10:23:30.260Z,9.56
2018-12-20T10:24:30.275Z,9.47
2018-12-20T10:25:30.298Z,9.54
2018-12-20T10:26:30.312Z,9.56
2018-12-20T10:27:31.591Z,9.61
2018-12-20T10:28:30.343Z,9.72
2018-12-20T10:29:30.362Z,9.66
2018-12-20T10:30:30.379Z,9.77
2018-12-20T10:31:30.398Z,9.79
2018-12-20T10:32:30.417Z,9.76
2018-12-20T10:33:30.433Z,9.76
2018-12-20T10:34:30.450Z,9.69
2018-12-20T10:35:30.464Z,9.69
2018-12-20T10:36:30.482Z,9.84
2018-12-20T10:37:30.498Z,9.92
2018-12-20T10:38:30.522Z,9.91
2018-12-20T10:39:30.536Z,9.89
2018-12-20T10:40:30.557Z,9.92
2018-12-20T10:41:30.570Z,9.83
2018-12-20T10:42:30.587Z,9.80
2018-12-20T10:43:30.604Z,9.87
2018-12-20T10:44:30.621Z,9.82
2018-12-20T10:45:30.639Z,9.89
2018-12-20T10:46:30.658Z,9.89
2018-12-20T10:47:30.675Z,9.89
2018-12-20T10:48:30.691Z,9.84
2018-12-20T10:49:30.707Z,9.87
2018-12-20T10:50:30.725Z,9.92
2018-12-20T10:51:30.745Z,9.92
2018-12-20T10:52:30.764Z,9.89
2018-12-20T10:53:30.778Z,9.87
2018-12-20T10:54:30.797Z,9.82
2018-12-20T10:55:30.815Z,9.79
2018-12-20T10:56:30.832Z,9.77
2018-12-20T10:57:30.847Z,9.72
2018-12-20T10:58:30.866Z,9.74
2018-12-20T10:59:30.883Z,9.73
2018-12-20T11:00:30.902Z,9.66
2018-12-20T11:01:30.919Z,9.73
2018-12-20T11:02:30.937Z,9.69
2018-12-20T11:03:30.953Z,9.68
2018-12-20T11:04:30.975Z,9.77
2018-12-20T11:05:30.988Z,9.73
2018-12-20T11:06:31.005Z,9.68
2018-12-20T11:07:31.030Z,9.72
2018-12-20T11:08:31.041Z,9.66
2018-12-20T11:09:31.055Z,9.69
2018-12-20T11:10:31.073Z,9.69
2018-12-20T11:11:31.090Z,9.66
2018-12-20T11:12:31.112Z,9.66
2018-12-20T11:13:31.125Z,9.65
2018-12-20T11:14:31.144Z,9.59
2018-12-20T11:15:31.159Z,9.72
2018-12-20T11:16:31.177Z,9.65
2018-12-20T11:17:37.365Z,9.69
2018-12-20T11:18:31.210Z,9.69
2018-12-20T11:19:31.232Z,9.68
2018-12-20T11:20:31.247Z,9.72
2018-12-20T11:21:31.266Z,9.68
2018-12-20T11:22:31.283Z,9.72
2018-12-20T11:23:31.299Z,9.79
2018-12-20T11:24:31.314Z,9.84
2018-12-20T11:25:31.331Z,9.82
2018-12-20T11:26:31.352Z,9.94
2018-12-20T11:27:31.367Z,9.89
2018-12-20T11:28:31.387Z,9.84
2018-12-20T11:29:31.400Z,9.92
2018-12-20T11:30:31.421Z,9.95
2018-12-20T11:31:31.435Z,9.94
2018-12-20T11:32:31.455Z,9.94
2018-12-20T11:33:31.471Z,9.89
2018-12-20T11:34:31.491Z,9.89
2018-12-20T11:35:31.507Z,9.92
2018-12-20T11:36:31.523Z,9.89
2018-12-20T11:37:31.543Z,9.86
2018-12-20T11:38:31.557Z,9.91
2018-12-20T11:39:31.574Z,9.91
2018-12-20T11:40:31.592Z,9.91
2018-12-20T11:41:31.609Z,9.86
2018-12-20T11:42:31.777Z,9.86
2018-12-20T11:43:31.647Z,9.87
2018-12-20T11:44:31.664Z,9.89
2018-12-20T11:45:31.681Z,9.92
2018-12-20T11:46:31.697Z,9.73
2018-12-20T11:47:31.717Z,9.69
2018-12-20T11:48:31.732Z,9.87
2018-12-20T11:49:31.751Z,9.84
2018-12-20T11:50:31.769Z,9.77
2018-12-20T11:51:31.786Z,9.87
2018-12-20T11:52:31.801Z,9.73
2018-12-20T11:53:31.818Z,9.80
2018-12-20T11:54:31.837Z,9.89
2018-12-20T11:55:32.054Z,9.80
2018-12-20T11:56:31.873Z,9.77
2018-12-20T11:57:31.890Z,9.80
2018-12-20T11:58:31.911Z,9.84
2018-12-20T11:59:31.927Z,9.86
2018-12-20T12:00:31.941Z,9.66
2018-12-20T12:01:31.959Z,9.77
2018-12-20T12:02:31.978Z,9.79
2018-12-20T12:03:31.995Z,9.82
2018-12-20T12:04:32.013Z,9.82
2018-12-20T12:05:32.026Z,9.89
2018-12-20T12:06:32.049Z,9.89
2018-12-20T12:07:32.066Z,9.89
2018-12-20T12:08:32.079Z,9.99
2018-12-20T12:09:32.096Z,9.95
2018-12-20T12:10:32.113Z,9.84
2018-12-20T12:11:32.131Z,9.89
2018-12-20T12:12:32.150Z,9.83
2018-12-20T12:13:32.169Z,9.77
2018-12-20T12:14:32.186Z,9.82
2018-12-20T12:15:32.204Z,9.76
2018-12-20T12:16:32.224Z,9.76
2018-12-20T12:17:32.235Z,9.74
2018-12-20T12:18:32.252Z,9.76
2018-12-20T12:19:32.270Z,9.69
2018-12-20T12:20:32.287Z,9.69
2018-12-20T12:21:32.307Z,9.76
2018-12-20T12:22:32.321Z,9.76
2018-12-20T12:25:14.900Z,9.79
2018-12-20T12:26:14.920Z,9.83
2018-12-20T12:27:14.933Z,9.79
2018-12-20T12:28:14.956Z,9.84
2018-12-20T12:29:14.970Z,9.92
2018-12-20T12:30:14.986Z,9.91
2018-12-20T12:31:15.003Z,9.92
2018-12-20T12:32:15.023Z,9.89
2018-12-20T12:33:15.038Z,9.86
2018-12-20T12:34:15.058Z,9.95
2018-12-20T12:35:15.072Z,9.95
2018-12-20T12:36:15.090Z,9.92
2018-12-20T12:37:15.110Z,9.94
2018-12-20T12:38:15.128Z,9.98
2018-12-20T12:39:15.145Z,9.87
2018-12-20T12:40:15.161Z,9.92
2018-12-20T12:41:15.177Z,9.94
2018-12-20T12:42:15.291Z,9.97
2018-12-20T12:43:15.212Z,9.92
2018-12-20T12:44:15.232Z,9.89
2018-12-20T12:45:15.246Z,9.89
2018-12-20T12:46:15.266Z,9.92
2018-12-20T12:47:15.281Z,9.92
2018-12-20T12:48:15.298Z,9.95
2018-12-20T12:49:15.319Z,9.99
2018-12-20T12:50:15.335Z,9.97
2018-12-20T12:51:15.353Z,9.98
2018-12-20T12:52:15.373Z,9.87
2018-12-20T12:53:15.387Z,9.97
2018-12-20T12:54:15.405Z,9.97
2018-12-20T12:55:15.423Z,9.98
2018-12-20T12:56:15.440Z,9.99
2018-12-20T12:57:15.457Z,9.97
2018-12-20T12:58:15.482Z,9.97
2018-12-20T12:59:15.493Z,9.99
2018-12-20T13:00:15.508Z,9.97
2018-12-20T13:01:15.525Z,9.95
2018-12-20T13:02:15.544Z,9.94
2018-12-20T13:03:15.561Z,9.94
2018-12-20T13:04:15.577Z,9.87
2018-12-20T13:05:15.597Z,9.89
2018-12-20T13:06:15.622Z,9.84
2018-12-20T13:07:15.632Z,9.94
2018-12-20T13:08:15.650Z,9.94
2018-12-20T13:09:15.666Z,9.97
2018-12-20T13:10:15.681Z,9.92
2018-12-20T13:11:15.700Z,9.86
2018-12-20T13:12:15.718Z,9.91
2018-12-20T13:13:15.736Z,9.92
2018-12-20T13:14:15.751Z,9.87
2018-12-20T13:15:15.768Z,9.89
2018-12-20T13:16:15.787Z,9.86
2018-12-20T13:17:15.802Z,9.87
2018-12-20T13:18:15.825Z,9.92
2018-12-20T13:19:15.838Z,9.94
2018-12-20T13:20:15.856Z,9.86